Terminal Aerodrome Forecast
Issued by NWS

Home | Current Version | Previous Version | Text Only | Print | Product List | Glossary On
Versions: 1 2 3 4 5 6 7 8 9 10 11 12 13 14
000
FTUS43 KEAX 181100
TAFMKC
TAF
KMKC 181137Z 1812/1912 10006KT P6SM SCT040 OVC110
     FM181500 16009KT 6SM -SHRA VCTS BKN040CB
      TEMPO 1816/1820 3SM -TSRA BKN025CB
     FM182200 14008KT P6SM BKN050
     FM190900 VRB03KT P6SM -SHRA VCTS BKN040CB=

USA.gov is the U.S. government's official web portal to all federal, state and local government web resources and services.